Time;durP1;ratioP1;P1;durP2;ratioP2;P2;SDS_P1;SDS_P2;PMS_P1;PMS_P2;Temp;Humidity;BMP_temperature;BMP_pressure;BME280_temperature;BME280_humidity;BME280_pressure;Samples;Min_cycle;Max_cycle;Signal;HPM_P1;HPM_P2
2022/05/03 00:01:46;;;;;;;6.35;3.15;;;;;;;8.68;100.00;101892.53;5205165;28;20040;-72
2022/05/03 00:04:28;;;;;;;9.13;3.80;;;;;;;8.63;100.00;101899.25;5204790;28;20032;-71
2022/05/03 00:07:18;;;;;;;8.40;3.72;;;;;;;8.60;100.00;101896.84;5205472;28;20029;-71
2022/05/03 00:10:21;;;;;;;6.30;3.53;;;;;;;8.51;100.00;101891.28;5204586;28;20029;-72
2022/05/03 00:12:58;;;;;;;7.28;4.20;;;;;;;8.46;100.00;101889.97;5205231;28;20537;-72
2022/05/03 00:15:31;;;;;;;7.97;3.05;;;;;;;8.47;100.00;101892.50;5204970;28;20024;-72
2022/05/03 00:18:03;;;;;;;10.88;3.95;;;;;;;8.49;100.00;101893.25;5204708;28;20504;-71
2022/05/03 00:20:35;;;;;;;12.20;3.78;;;;;;;8.45;100.00;101891.81;5204950;28;20109;-72
2022/05/03 00:23:07;;;;;;;7.00;3.83;;;;;;;8.40;100.00;101888.66;5205026;28;20033;-71
2022/05/03 00:25:38;;;;;;;5.57;3.28;;;;;;;8.35;100.00;101884.63;5204898;28;20393;-71
2022/05/03 00:28:10;;;;;;;7.93;3.53;;;;;;;8.32;100.00;101893.75;5204751;28;20029;-71
2022/05/03 00:30:42;;;;;;;7.80;3.45;;;;;;;8.30;100.00;101885.00;5204359;28;20030;-71
2022/05/03 00:33:15;;;;;;;9.15;4.00;;;;;;;8.27;100.00;101888.78;5204882;28;20025;-71
2022/05/03 00:35:45;;;;;;;5.25;3.42;;;;;;;8.28;100.00;101885.16;5203947;28;20013;-71
2022/05/03 00:38:16;;;;;;;5.28;3.28;;;;;;;8.32;100.00;101883.91;5195739;28;20522;-71
2022/05/03 00:40:54;;;;;;;6.47;4.07;;;;;;;8.34;100.00;101873.09;5198687;28;20104;-71
2022/05/03 00:43:46;;;;;;;6.97;4.10;;;;;;;8.29;100.00;101870.81;5204975;28;20029;-71
2022/05/03 00:46:20;;;;;;;6.22;3.55;;;;;;;8.27;100.00;101882.56;5204432;28;20482;-71
2022/05/03 00:49:19;;;;;;;7.63;4.15;;;;;;;8.26;100.00;101876.38;5204374;28;20032;-70
2022/05/03 00:52:06;;;;;;;11.50;5.80;;;;;;;8.20;100.00;101876.91;5204623;28;20475;-71
2022/05/03 00:55:12;;;;;;;6.65;3.95;;;;;;;8.15;100.00;101883.59;5204634;28;20036;-71
2022/05/03 00:58:16;;;;;;;9.80;4.63;;;;;;;8.03;100.00;101874.72;5204520;28;20109;-71
2022/05/03 01:01:03;;;;;;;8.07;4.63;;;;;;;7.96;100.00;101884.25;5204414;28;20025;-71
2022/05/03 01:03:41;;;;;;;7.65;4.70;;;;;;;7.91;100.00;101884.59;5204831;28;20108;-71
2022/05/03 01:06:46;;;;;;;9.77;4.75;;;;;;;7.89;100.00;101883.88;5203958;28;20140;-69
2022/05/03 01:13:03;;;;;;;8.02;4.40;;;;;;;7.78;100.00;101881.22;5204418;28;20037;-71
2022/05/03 01:15:39;;;;;;;8.80;4.93;;;;;;;7.75;100.00;101878.81;5201502;28;20555;-71
2022/05/03 01:18:34;;;;;;;10.45;5.95;;;;;;;7.70;100.00;101881.00;5204240;28;20033;-71
2022/05/03 01:21:36;;;;;;;9.82;4.38;;;;;;;7.72;100.00;101871.88;5204199;28;20017;-70
2022/05/03 01:24:29;;;;;;;8.63;5.28;;;;;;;7.68;100.00;101877.56;5194957;28;20118;-70
2022/05/03 01:27:36;;;;;;;12.27;5.60;;;;;;;7.62;100.00;101880.75;5191077;28;20048;-70
2022/05/03 01:30:09;;;;;;;13.43;7.32;;;;;;;7.53;100.00;101877.84;5203814;28;20076;-70
2022/05/03 01:32:43;;;;;;;8.18;5.00;;;;;;;7.48;100.00;101869.34;5204134;28;20025;-70
2022/05/03 01:35:15;;;;;;;9.67;5.93;;;;;;;7.44;100.00;101873.22;5203353;28;20071;-70
2022/05/03 01:38:06;;;;;;;10.18;4.88;;;;;;;7.48;100.00;101868.47;5198275;28;20080;-70
2022/05/03 01:44:13;;;;;;;16.48;6.38;;;;;;;7.39;100.00;101866.56;5203995;28;20030;-70
2022/05/03 01:46:44;;;;;;;11.43;5.25;;;;;;;7.34;100.00;101869.59;5203973;28;20029;-70
2022/05/03 01:52:54;;;;;;;9.70;5.72;;;;;;;7.35;100.00;101873.09;5204159;28;20398;-70
2022/05/03 01:55:51;;;;;;;12.93;6.40;;;;;;;7.32;100.00;101865.31;5203524;28;20398;-70
2022/05/03 01:58:21;;;;;;;15.00;5.95;;;;;;;7.28;100.00;101859.41;5204084;28;20029;-70
2022/05/03 02:01:02;;;;;;;13.10;6.50;;;;;;;7.23;100.00;101867.75;5203585;28;20029;-70
2022/05/03 02:04:20;;;;;;;9.88;5.50;;;;;;;7.25;100.00;101864.97;5203574;28;20026;-70
2022/05/03 02:07:18;;;;;;;12.60;6.50;;;;;;;7.34;100.00;101866.06;5203680;28;20104;-70
2022/05/03 02:10:07;;;;;;;10.45;5.32;;;;;;;7.25;100.00;101863.13;5203404;28;20030;-70
2022/05/03 02:12:41;;;;;;;11.00;5.78;;;;;;;7.25;100.00;101862.28;5203388;28;20034;-71
2022/05/03 02:15:16;;;;;;;11.82;5.80;;;;;;;7.26;100.00;101859.50;5203182;28;20482;-70
2022/05/03 02:18:09;;;;;;;9.52;5.63;;;;;;;7.27;100.00;101855.84;5203682;28;20083;-70
2022/05/03 02:30:51;;;;;;;11.15;6.13;;;;;;;7.05;100.00;101865.66;5207460;28;20038;-71
2022/05/03 02:33:26;;;;;;;13.38;6.35;;;;;;;7.00;100.00;101866.84;5207147;28;20018;-72
2022/05/03 02:35:58;;;;;;;12.00;6.35;;;;;;;7.01;100.00;101871.22;5206162;28;20041;-70
2022/05/03 02:38:36;;;;;;;10.05;6.10;;;;;;;6.97;100.00;101874.25;5196535;28;20029;-71
2022/05/03 02:41:10;;;;;;;14.27;6.35;;;;;;;6.93;100.00;101867.47;5204191;28;20022;-71
2022/05/03 02:43:40;;;;;;;12.68;7.35;;;;;;;6.97;100.00;101868.91;5207207;28;20514;-71
2022/05/03 02:46:30;;;;;;;14.30;6.78;;;;;;;6.90;100.00;101871.19;5206614;28;20029;-71
2022/05/03 02:49:04;;;;;;;22.00;8.35;;;;;;;6.86;100.00;101863.56;5207068;28;20033;-71
2022/05/03 02:51:41;;;;;;;12.97;7.37;;;;;;;6.93;100.00;101870.13;5207187;28;20623;-70
2022/05/03 02:54:31;;;;;;;14.75;7.32;;;;;;;6.88;100.00;101873.16;5206881;28;20013;-71
2022/05/03 02:57:23;;;;;;;13.75;7.43;;;;;;;6.81;100.00;101866.56;5206765;28;20022;-70
2022/05/03 03:03:29;;;;;;;11.90;6.53;;;;;;;6.76;100.00;101871.41;5206799;28;20026;-69
2022/05/03 03:06:01;;;;;;;15.85;7.57;;;;;;;6.80;100.00;101872.03;5206545;28;20270;-69
2022/05/03 03:08:39;;;;;;;14.93;7.55;;;;;;;6.81;100.00;101863.06;5206678;28;20384;-69
2022/05/03 03:11:22;;;;;;;11.57;6.57;;;;;;;6.81;100.00;101866.56;5206594;28;20070;-69
2022/05/03 03:14:05;;;;;;;13.55;7.35;;;;;;;6.79;100.00;101875.66;5206508;28;20094;-69
2022/05/03 03:17:05;;;;;;;14.70;7.65;;;;;;;6.71;100.00;101869.06;5206342;28;20036;-69
2022/05/03 03:20:02;;;;;;;13.48;7.10;;;;;;;6.62;100.00;101863.59;5206406;28;20021;-69
2022/05/03 03:22:50;;;;;;;16.42;7.95;;;;;;;6.54;100.00;101876.66;5206611;28;20025;-70
2022/05/03 03:25:23;;;;;;;21.05;8.05;;;;;;;6.49;100.00;101869.84;5193018;28;20104;-69
2022/05/03 03:27:56;;;;;;;16.15;7.72;;;;;;;6.55;100.00;101865.88;5206006;28;20037;-69
2022/05/03 03:30:27;;;;;;;13.55;7.80;;;;;;;6.55;100.00;101865.88;5206535;28;20018;-69
2022/05/03 03:32:58;;;;;;;15.25;7.22;;;;;;;6.54;100.00;101866.00;5206422;28;20045;-69
2022/05/03 03:35:31;;;;;;;16.52;8.05;;;;;;;6.54;100.00;101874.84;5206496;28;20029;-69
2022/05/03 03:38:03;;;;;;;17.85;7.35;;;;;;;6.53;100.00;101870.50;5198698;28;20026;-69
2022/05/03 03:40:35;;;;;;;16.58;8.43;;;;;;;6.43;100.00;101865.00;5197745;28;20025;-69
2022/05/03 03:43:06;;;;;;;15.32;8.30;;;;;;;6.38;100.00;101868.97;5206149;28;20075;-69
2022/05/03 03:45:36;;;;;;;18.95;8.73;;;;;;;6.37;100.00;101867.25;5205676;28;20029;-69
2022/05/03 03:48:08;;;;;;;15.98;8.18;;;;;;;6.32;100.00;101866.72;5206153;28;20798;-69
2022/05/03 03:50:42;;;;;;;14.57;9.15;;;;;;;6.23;100.00;101861.13;5205395;28;20025;-69
2022/05/03 03:53:15;;;;;;;18.70;9.38;;;;;;;6.22;100.00;101861.22;5205984;28;20029;-69
2022/05/03 03:55:46;;;;;;;16.77;8.35;;;;;;;6.20;100.00;101857.84;5205525;28;20029;-69
2022/05/03 03:58:18;;;;;;;18.60;9.05;;;;;;;6.22;100.00;101863.91;5204730;28;20095;-69
2022/05/03 04:00:49;;;;;;;15.18;8.52;;;;;;;6.31;100.00;101871.22;5205293;28;20013;-69
2022/05/03 04:03:21;;;;;;;19.00;8.30;;;;;;;6.31;100.00;101863.22;5205571;28;20108;-69
2022/05/03 04:05:52;;;;;;;23.98;10.40;;;;;;;6.35;100.00;101870.03;5205278;28;20029;-70
2022/05/03 04:08:24;;;;;;;18.02;8.45;;;;;;;6.31;100.00;101860.56;5205462;28;20026;-69
2022/05/03 04:10:54;;;;;;;16.23;8.52;;;;;;;6.29;100.00;101875.81;5205796;28;20036;-69
2022/05/03 04:13:25;;;;;;;15.20;8.10;;;;;;;6.20;100.00;101880.00;5205314;28;20025;-69
2022/05/03 04:15:55;;;;;;;16.63;8.85;;;;;;;6.15;100.00;101873.31;5205220;28;20022;-70
2022/05/03 04:18:44;;;;;;;19.38;9.70;;;;;;;6.12;100.00;101873.53;5205143;28;20032;-69
2022/05/03 04:21:16;;;;;;;19.10;9.02;;;;;;;6.05;100.00;101872.28;5205190;28;20021;-69
2022/05/03 04:23:47;;;;;;;15.90;8.30;;;;;;;6.04;100.00;101878.59;5205046;28;20061;-70
2022/05/03 04:26:18;;;;;;;17.83;9.50;;;;;;;6.05;100.00;101883.78;5204852;28;20478;-69
2022/05/03 04:28:48;;;;;;;18.13;9.15;;;;;;;6.06;100.00;101882.81;5205113;28;20025;-69
2022/05/03 04:31:19;;;;;;;17.85;9.25;;;;;;;6.08;100.00;101885.41;5204999;28;20491;-69
2022/05/03 04:33:49;;;;;;;19.67;9.85;;;;;;;6.08;100.00;101883.59;5205195;28;20432;-70
2022/05/03 04:36:21;;;;;;;20.40;10.13;;;;;;;6.03;100.00;101887.56;5203181;28;20038;-70
2022/05/03 04:38:52;;;;;;;22.65;10.40;;;;;;;5.95;100.00;101880.94;5192445;28;20029;-69
2022/05/03 04:41:23;;;;;;;18.10;9.73;;;;;;;5.96;100.00;101884.47;5204137;28;20029;-70
2022/05/03 04:43:54;;;;;;;19.33;11.02;;;;;;;5.94;100.00;101889.91;5204808;28;20025;-69
2022/05/03 04:46:24;;;;;;;23.55;9.82;;;;;;;5.93;100.00;101885.53;5204744;28;20103;-70
2022/05/03 04:48:55;;;;;;;20.95;10.70;;;;;;;5.97;100.00;101889.69;5204387;28;20036;-70
2022/05/03 04:51:25;;;;;;;19.50;9.98;;;;;;;6.03;100.00;101885.72;5204637;28;20028;-70
2022/05/03 04:53:55;;;;;;;17.33;9.85;;;;;;;6.05;100.00;101889.13;5204727;28;20467;-69
2022/05/03 04:56:27;;;;;;;20.48;10.00;;;;;;;6.13;100.00;101892.09;5204524;28;20026;-70
2022/05/03 04:58:58;;;;;;;19.17;9.75;;;;;;;6.19;100.00;101893.44;5204577;28;20071;-70
2022/05/03 05:01:29;;;;;;;23.67;11.20;;;;;;;6.28;100.00;101884.78;5204157;28;20025;-70
2022/05/03 05:03:59;;;;;;;24.15;9.57;;;;;;;6.27;100.00;101890.22;5204311;28;20071;-70
2022/05/03 05:06:30;;;;;;;18.58;9.70;;;;;;;6.27;100.00;101892.88;5204212;28;20519;-70
2022/05/03 05:09:00;;;;;;;19.40;9.60;;;;;;;6.29;100.00;101894.47;5204374;28;20510;-69
2022/05/03 05:11:30;;;;;;;21.95;9.88;;;;;;;6.32;100.00;101899.56;5204225;28;20030;-70
2022/05/03 05:14:01;;;;;;;22.27;9.98;;;;;;;6.35;100.00;101893.16;5201992;28;20118;-69
2022/05/03 05:16:31;;;;;;;17.48;10.40;;;;;;;6.40;100.00;101893.69;5198938;28;20032;-69
2022/05/03 05:19:02;;;;;;;20.02;9.40;;;;;;;6.45;100.00;101889.72;5204443;28;20472;-69
2022/05/03 05:21:32;;;;;;;17.92;9.18;;;;;;;6.51;100.00;101901.72;5203910;28;20053;-69
2022/05/03 05:24:03;;;;;;;21.13;10.25;;;;;;;6.58;100.00;101900.31;5204206;28;20033;-69
2022/05/03 05:26:33;;;;;;;21.02;9.60;;;;;;;6.65;100.00;101901.53;5203553;28;20383;-70
2022/05/03 05:29:04;;;;;;;18.23;9.45;;;;;;;6.75;100.00;101904.38;5204202;28;20040;-70
2022/05/03 05:31:35;;;;;;;22.65;9.05;;;;;;;6.85;100.00;101901.88;5204032;28;20038;-69
2022/05/03 05:34:06;;;;;;;19.63;10.45;;;;;;;6.93;100.00;101900.31;5203951;28;20052;-70
2022/05/03 05:36:37;;;;;;;22.05;10.48;;;;;;;7.05;100.00;101908.34;5203908;28;20017;-69
2022/05/03 05:39:07;;;;;;;18.80;9.48;;;;;;;7.17;100.00;101899.38;5189117;28;20069;-69
2022/05/03 05:41:38;;;;;;;18.52;9.40;;;;;;;7.34;100.00;101898.94;5204348;28;20017;-69
2022/05/03 05:44:10;;;;;;;18.90;8.88;;;;;;;7.57;100.00;101901.63;5203697;28;20037;-70
2022/05/03 05:46:40;;;;;;;21.98;9.05;;;;;;;7.68;100.00;101905.16;5204065;28;20079;-70
2022/05/03 05:49:11;;;;;;;15.50;8.45;;;;;;;7.88;100.00;101908.03;5203437;28;20025;-70
2022/05/03 05:51:41;;;;;;;16.23;9.30;;;;;;;8.11;100.00;101908.88;5203787;28;20064;-70
2022/05/03 05:54:12;;;;;;;15.45;8.73;;;;;;;8.68;100.00;101916.63;5203627;28;20072;-70
2022/05/03 05:56:44;;;;;;;16.73;8.73;;;;;;;9.56;100.00;101913.56;5204077;28;20449;-70
2022/05/03 05:59:15;;;;;;;15.05;8.05;;;;;;;10.67;100.00;101909.91;5190955;28;20109;-70
2022/05/03 06:01:45;;;;;;;13.85;7.00;;;;;;;11.46;100.00;101912.34;5203390;28;20108;-70
2022/05/03 06:04:16;;;;;;;10.75;6.43;;;;;;;12.33;100.00;101916.50;5207864;28;20040;-70
2022/05/03 06:06:46;;;;;;;12.93;8.10;;;;;;;12.53;100.00;101911.81;5207945;28;20032;-70
2022/05/03 06:09:17;;;;;;;12.52;7.03;;;;;;;12.99;100.00;101921.50;5207942;28;20114;-70
2022/05/03 06:11:48;;;;;;;10.32;6.90;;;;;;;13.70;100.00;101926.75;5207722;28;20056;-70
2022/05/03 06:14:18;;;;;;;10.40;7.10;;;;;;;14.09;100.00;101918.13;5206995;28;20049;-70
2022/05/03 06:16:52;;;;;;;12.82;6.88;;;;;;;14.11;100.00;101924.22;5207768;28;20033;-70
2022/05/03 06:19:24;;;;;;;12.23;6.97;;;;;;;13.62;100.00;101929.38;5207665;28;20025;-70
2022/05/03 06:21:54;;;;;;;11.32;6.93;;;;;;;13.70;100.00;101929.44;5207689;28;20450;-70
2022/05/03 06:24:25;;;;;;;13.43;6.72;;;;;;;14.12;100.00;101916.97;5206114;28;20029;-70
2022/05/03 06:26:55;;;;;;;14.32;7.15;;;;;;;13.96;100.00;101923.16;5207339;28;20021;-70
2022/05/03 06:29:26;;;;;;;12.88;7.05;;;;;;;14.27;100.00;101919.88;5207556;28;20061;-70
2022/05/03 06:31:59;;;;;;;14.38;6.95;;;;;;;14.63;100.00;101918.63;5207528;28;20479;-71
2022/05/03 06:34:30;;;;;;;10.73;6.38;;;;;;;14.97;100.00;101923.06;5207170;28;20057;-71
2022/05/03 06:37:00;;;;;;;9.65;6.97;;;;;;;15.03;100.00;101923.22;5206492;28;20565;-71
2022/05/03 06:39:31;;;;;;;11.00;6.65;;;;;;;15.12;100.00;101923.22;5192361;28;20039;-71
2022/05/03 06:42:05;;;;;;;13.45;7.13;;;;;;;15.67;100.00;101923.31;5207288;28;20498;-71
2022/05/03 06:44:37;;;;;;;9.82;5.90;;;;;;;16.14;99.54;101925.16;5207000;28;20041;-71
2022/05/03 06:47:08;;;;;;;10.32;5.97;;;;;;;16.05;96.25;101927.06;5207135;28;20502;-71
2022/05/03 06:49:38;;;;;;;10.65;6.05;;;;;;;16.31;94.01;101921.38;5206692;28;20052;-71
2022/05/03 06:52:09;;;;;;;11.45;6.47;;;;;;;16.90;85.47;101926.22;5206802;28;20017;-71
2022/05/03 06:54:39;;;;;;;12.13;5.28;;;;;;;16.77;88.51;101932.25;5206881;28;20033;-71
2022/05/03 06:57:09;;;;;;;8.60;4.75;;;;;;;17.63;77.24;101940.97;5207238;28;20031;-71
2022/05/03 06:59:40;;;;;;;7.10;4.30;;;;;;;17.63;75.98;101942.84;5206855;28;20029;-71
2022/05/03 07:02:11;;;;;;;11.07;5.10;;;;;;;18.19;72.01;101938.63;5206563;28;20093;-72
2022/05/03 07:04:44;;;;;;;10.55;4.47;;;;;;;18.33;68.06;101947.78;5206472;28;20033;-71
2022/05/03 07:07:14;;;;;;;10.63;4.30;;;;;;;18.26;69.38;101944.97;5206753;28;20025;-71
2022/05/03 07:09:45;;;;;;;7.32;4.72;;;;;;;18.56;68.23;101948.44;5206819;28;20033;-71
2022/05/03 07:12:15;;;;;;;6.47;4.93;;;;;;;18.13;66.44;101944.00;5206630;28;20053;-71
2022/05/03 07:14:46;;;;;;;6.55;4.22;;;;;;;18.19;63.00;101948.66;5204559;28;20028;-71
2022/05/03 07:22:55;;;;;;;6.95;3.72;;;;;;;17.45;62.12;101946.75;5206285;28;20037;-71
2022/05/03 07:25:26;;;;;;;10.15;3.47;;;;;;;17.64;58.61;101945.38;5206128;28;20029;-71
2022/05/03 07:27:56;;;;;;;5.88;3.08;;;;;;;17.93;58.31;101949.16;5206262;28;20086;-71
2022/05/03 07:30:27;;;;;;;4.97;3.40;;;;;;;18.39;56.07;101955.16;5206118;28;20022;-71
2022/05/03 07:32:57;;;;;;;6.75;3.10;;;;;;;18.63;53.43;101943.13;5206240;28;20104;-72
2022/05/03 07:35:28;;;;;;;8.65;3.88;;;;;;;18.56;53.04;101950.34;5205689;28;20021;-72
2022/05/03 07:37:58;;;;;;;5.38;3.28;;;;;;;18.96;51.97;101948.91;5199703;28;20025;-71
2022/05/03 07:40:29;;;;;;;5.90;3.25;;;;;;;19.20;50.47;101950.38;5198226;28;20049;-72
2022/05/03 07:43:02;;;;;;;6.68;3.22;;;;;;;19.80;50.70;101959.00;5206240;28;20030;-71
2022/05/03 07:45:32;;;;;;;6.63;3.20;;;;;;;19.32;46.99;101950.66;5205896;28;20121;-71
2022/05/03 07:48:04;;;;;;;7.28;3.10;;;;;;;19.05;50.78;101952.31;5205754;28;20108;-72
2022/05/03 07:50:34;;;;;;;9.45;3.88;;;;;;;19.38;52.27;101950.72;5205833;28;20072;-72
2022/05/03 07:53:05;;;;;;;6.07;3.33;;;;;;;19.59;49.64;101951.72;5206089;28;20433;-72
2022/05/03 07:55:36;;;;;;;8.02;3.20;;;;;;;20.44;49.04;101951.34;5205697;28;20135;-72
2022/05/03 07:58:06;;;;;;;7.30;3.22;;;;;;;20.49;49.62;101953.47;5205987;28;20444;-72
2022/05/03 08:00:37;;;;;;;7.32;4.05;;;;;;;20.35;48.12;101952.56;5205355;28;20026;-72
2022/05/03 08:03:08;;;;;;;9.95;3.90;;;;;;;20.54;48.35;101952.88;5205957;28;20104;-72
2022/05/03 08:05:39;;;;;;;10.13;4.25;;;;;;;20.76;47.89;101948.91;5205634;28;20478;-72
2022/05/03 08:08:09;;;;;;;4.88;3.42;;;;;;;20.68;48.05;101946.38;5206433;28;20029;-72
2022/05/03 08:10:40;;;;;;;6.40;3.75;;;;;;;21.02;47.52;101959.03;5205380;28;20495;-72
2022/05/03 08:13:11;;;;;;;7.25;4.00;;;;;;;21.39;46.92;101957.59;5205242;28;20025;-72
2022/05/03 08:15:42;;;;;;;5.68;4.00;;;;;;;;;;5205091;28;20455;-72
2022/05/03 08:18:12;;;;;;;12.85;4.43;;;;;;;20.41;46.10;101956.34;5205281;28;20060;-72
2022/05/03 08:20:43;;;;;;;8.55;4.25;;;;;;;20.10;49.64;101959.56;5205351;28;20018;-72
2022/05/03 08:23:14;;;;;;;8.73;4.05;;;;;;;20.65;50.06;101963.16;5205328;28;20385;-72
2022/05/03 08:25:45;;;;;;;9.68;5.35;;;;;;;21.63;47.90;101967.00;5204391;28;20037;-72
2022/05/03 08:28:15;;;;;;;7.38;5.25;;;;;;;21.76;48.19;101954.41;5205119;28;20450;-72
2022/05/03 08:30:46;;;;;;;9.75;4.80;;;;;;;22.06;46.86;101958.28;5205265;28;20117;-72
2022/05/03 08:33:16;;;;;;;13.40;5.70;;;;;;;21.43;50.46;101960.72;5205246;28;20029;-72
2022/05/03 08:35:47;;;;;;;9.00;5.53;;;;;;;22.15;46.46;101961.66;5203922;28;20027;-72
2022/05/03 08:43:58;;;;;;;11.80;5.50;;;;;;;21.48;52.47;101952.75;5205493;28;20401;-72
2022/05/03 08:46:30;;;;;;;10.77;5.32;;;;;;;21.90;48.28;101959.59;5204469;28;20071;-72
2022/05/03 08:49:03;;;;;;;9.43;6.10;;;;;;;21.79;49.68;101946.63;5205036;28;20026;-72
2022/05/03 08:51:33;;;;;;;9.13;5.05;;;;;;;22.55;44.70;101951.38;5204929;28;20403;-72
2022/05/03 08:54:05;;;;;;;7.65;5.43;;;;;;;22.25;45.37;101959.31;5204780;28;20029;-72
2022/05/03 08:56:37;;;;;;;8.30;5.18;;;;;;;22.23;44.99;101954.03;5204467;28;20411;-72
2022/05/03 08:59:08;;;;;;;10.75;5.55;;;;;;;21.35;47.39;101953.59;5204322;28;20076;-72
2022/05/03 09:01:39;;;;;;;8.98;5.35;;;;;;;20.84;50.01;101956.09;5204691;28;20389;-72
2022/05/03 09:04:10;;;;;;;10.70;5.32;;;;;;;20.78;50.15;101956.88;5204184;28;20033;-72
2022/05/03 09:06:43;;;;;;;8.63;4.95;;;;;;;19.82;51.88;101954.19;5204990;28;20319;-72
2022/05/03 09:09:15;;;;;;;7.03;5.13;;;;;;;20.20;54.37;101957.31;5204199;28;20390;-72
2022/05/03 09:11:49;;;;;;;7.00;3.92;;;;;;;19.86;53.09;101961.75;5204281;28;20017;-71
2022/05/03 09:14:42;;;;;;;7.88;4.20;;;;;;;20.78;55.74;101957.72;5202219;28;20025;-72
2022/05/03 09:17:12;;;;;;;11.50;4.88;;;;;;;21.12;52.95;101961.34;5204460;28;20095;-72
2022/05/03 09:19:43;;;;;;;8.15;5.18;;;;;;;20.89;49.89;101959.03;5203902;28;20107;-72
2022/05/03 09:25:12;;;;;;;7.75;4.20;;;;;;;21.19;52.10;101963.03;5204002;28;20041;-72
2022/05/03 09:27:43;;;;;;;6.40;4.53;;;;;;;21.57;52.19;101961.56;5204009;28;20108;-72
2022/05/03 09:30:14;;;;;;;6.82;4.38;;;;;;;21.73;51.71;101963.84;5203725;28;20044;-72
2022/05/03 09:32:47;;;;;;;5.13;3.88;;;;;;;21.88;53.20;101967.16;5204043;28;20025;-72
2022/05/03 09:35:33;;;;;;;6.65;4.13;;;;;;;22.20;50.30;101959.13;5204063;28;20025;-72
2022/05/03 09:38:04;;;;;;;6.50;4.00;;;;;;;22.33;51.27;101963.69;5196041;28;20034;-72
2022/05/03 09:40:39;;;;;;;6.85;4.20;;;;;;;22.09;51.31;101962.47;5196329;28;20048;-72
2022/05/03 09:43:10;;;;;;;5.15;4.25;;;;;;;22.00;51.54;101961.06;5204512;28;20079;-72
2022/05/03 09:45:41;;;;;;;7.20;4.47;;;;;;;21.90;51.17;101964.25;5203576;28;20087;-72
2022/05/03 09:48:11;;;;;;;5.72;4.25;;;;;;;22.43;51.27;101961.31;5203990;28;20029;-72
2022/05/03 09:50:45;;;;;;;8.98;4.90;;;;;;;22.03;49.85;101955.97;5203590;28;20047;-72
2022/05/03 09:53:18;;;;;;;9.90;4.60;;;;;;;22.06;51.16;101955.56;5203678;28;20502;-72
2022/05/03 09:55:50;;;;;;;5.82;3.78;;;;;;;21.21;51.26;101943.72;5203502;28;20094;-72
2022/05/03 09:58:20;;;;;;;5.97;4.30;;;;;;;22.13;49.40;101945.47;5203914;28;20453;-72
2022/05/03 10:00:51;;;;;;;10.90;4.85;;;;;;;21.44;51.86;101951.50;5203477;28;20025;-72
2022/05/03 10:03:21;;;;;;;7.35;4.40;;;;;;;21.43;53.32;101949.81;5203431;28;20386;-72
2022/05/03 10:05:55;;;;;;;10.70;4.80;;;;;;;20.38;51.05;101946.72;5203277;28;20494;-72
2022/05/03 10:08:25;;;;;;;7.55;5.03;;;;;;;20.84;53.56;101942.44;5203620;28;20030;-72
2022/05/03 10:10:56;;;;;;;8.55;5.40;;;;;;;20.97;58.55;101941.59;5203704;28;20342;-72
2022/05/03 10:13:26;;;;;;;5.97;4.43;;;;;;;21.57;53.67;101939.72;5203632;28;20024;-72
2022/05/03 10:21:41;;;;;;;6.68;4.70;;;;;;;21.15;50.33;101939.09;5203530;28;20022;-72
2022/05/03 10:24:12;;;;;;;8.35;4.78;;;;;;;20.57;50.60;101936.09;5203048;28;20056;-71
2022/05/03 10:26:53;;;;;;;8.32;4.75;;;;;;;21.09;51.84;101927.16;5203415;28;20033;-72
2022/05/03 10:29:25;;;;;;;9.80;4.50;;;;;;;21.35;53.95;101929.03;5203402;28;20400;-72
2022/05/03 10:32:15;;;;;;;7.45;4.80;;;;;;;21.45;56.02;101926.72;5203620;28;20079;-72
2022/05/03 10:35:03;;;;;;;11.00;5.55;;;;;;;21.40;52.85;101926.53;5202720;28;20021;-72
2022/05/03 10:37:36;;;;;;;10.00;5.85;;;;;;;21.00;50.86;101922.09;5199437;28;20038;-72
2022/05/03 10:40:10;;;;;;;9.65;4.97;;;;;;;21.75;50.91;101920.78;5192258;28;20421;-72
2022/05/03 10:42:41;;;;;;;6.47;4.68;;;;;;;21.60;52.29;101920.19;5203131;28;20546;-72
2022/05/03 10:45:13;;;;;;;6.85;4.53;;;;;;;21.71;54.55;101914.91;5202697;28;20040;-72
2022/05/03 10:47:59;;;;;;;6.20;4.25;;;;;;;22.11;56.35;101912.06;5203075;28;20032;-72
2022/05/03 10:50:32;;;;;;;7.30;4.80;;;;;;;21.73;52.20;101920.13;5206814;28;20033;-72
2022/05/03 10:53:05;;;;;;;6.07;4.88;;;;;;;21.91;50.28;101916.75;5207017;28;20025;-72
2022/05/03 10:55:38;;;;;;;10.93;5.10;;;;;;;20.52;51.09;101911.31;5206405;28;20030;-72
2022/05/03 10:58:38;;;;;;;6.43;4.63;;;;;;;20.53;52.23;101915.72;5206906;28;20025;-72
2022/05/03 11:01:30;;;;;;;10.55;5.22;;;;;;;21.30;56.51;101911.59;5206682;28;20071;-72
2022/05/03 11:04:01;;;;;;;10.23;5.75;;;;;;;21.74;54.38;101908.19;5206530;28;20078;-72
2022/05/03 11:06:37;;;;;;;7.15;5.15;;;;;;;21.45;52.72;101909.50;5206482;28;20124;-72
2022/05/03 11:09:09;;;;;;;7.50;5.07;;;;;;;22.05;51.29;101896.50;5206792;28;20025;-72
2022/05/03 11:14:29;;;;;;;6.70;4.53;;;;;;;22.01;50.07;101888.97;5206021;28;20033;-72
2022/05/03 11:17:15;;;;;;;10.27;5.20;;;;;;;22.23;52.16;101891.19;5206383;28;20029;-72
2022/05/03 11:19:49;;;;;;;8.15;5.45;;;;;;;22.28;49.98;101879.59;5206470;28;20025;-72
2022/05/03 11:22:22;;;;;;;9.43;5.43;;;;;;;21.82;54.45;101882.50;5206603;28;20030;-72
2022/05/03 11:24:56;;;;;;;8.02;5.72;;;;;;;21.72;51.32;101880.25;5205920;28;20041;-72
2022/05/03 11:27:27;;;;;;;8.63;5.50;;;;;;;21.14;56.81;101880.97;5206249;28;20438;-72
2022/05/03 11:30:00;;;;;;;7.28;5.05;;;;;;;20.86;52.37;101878.44;5206136;28;20021;-72
2022/05/03 11:32:32;;;;;;;7.07;5.15;;;;;;;21.11;53.81;101875.09;5206805;28;20021;-72
2022/05/03 11:35:06;;;;;;;7.13;5.47;;;;;;;20.70;55.18;101854.31;5205802;28;20078;-72
2022/05/03 11:37:46;;;;;;;7.70;5.00;;;;;;;20.83;56.72;101862.50;5202141;28;20109;-72
2022/05/03 11:40:20;;;;;;;12.85;5.30;;;;;;;21.64;56.00;101858.66;5196304;28;20021;-72
2022/05/03 11:42:51;;;;;;;10.95;4.88;;;;;;;21.58;52.94;101860.31;5206004;28;20482;-72
2022/05/03 11:45:21;;;;;;;7.28;4.88;;;;;;;21.13;54.03;101868.34;5205847;28;20033;-72
2022/05/03 11:47:52;;;;;;;9.27;5.25;;;;;;;20.40;53.97;101864.72;5205619;28;20045;-72
2022/05/03 11:56:07;;;;;;;6.93;5.05;;;;;;;21.22;56.88;101852.59;5192325;28;20033;-72
2022/05/03 11:58:40;;;;;;;9.18;5.03;;;;;;;21.36;53.85;101853.47;5205766;28;20052;-72
2022/05/03 12:01:13;;;;;;;9.80;4.35;;;;;;;21.30;49.82;101846.97;5205074;28;20021;-71
2022/05/03 12:03:46;;;;;;;7.05;3.97;;;;;;;22.42;51.91;101839.34;5205651;28;20055;-71
2022/05/03 12:06:19;;;;;;;5.88;4.40;;;;;;;22.82;52.63;101841.78;5205065;28;20105;-72
2022/05/03 12:08:52;;;;;;;8.40;4.03;;;;;;;22.68;50.61;101832.84;5205583;28;20021;-72
2022/05/03 12:11:24;;;;;;;11.65;4.95;;;;;;;22.03;49.92;101830.28;5205493;28;20061;-71
2022/05/03 12:13:54;;;;;;;5.78;4.15;;;;;;;21.25;50.06;101830.38;5205385;28;20137;-71
2022/05/03 12:16:27;;;;;;;6.38;4.07;;;;;;;20.84;51.62;101839.66;5190594;28;20034;-71
2022/05/03 12:18:58;;;;;;;10.15;4.95;;;;;;;20.38;55.01;101826.81;5199495;28;20026;-71
2022/05/03 12:21:30;;;;;;;8.88;4.45;;;;;;;20.23;54.58;101828.00;5203886;28;20342;-71
2022/05/03 12:24:03;;;;;;;7.00;4.30;;;;;;;20.17;54.41;101826.94;5203603;28;20021;-71
2022/05/03 12:26:37;;;;;;;8.43;3.80;;;;;;;20.15;55.69;101820.88;5203065;28;20075;-72
2022/05/03 12:29:09;;;;;;;6.63;3.40;;;;;;;20.11;54.92;101825.06;5203554;28;20087;-71
2022/05/03 12:31:43;;;;;;;6.20;3.92;;;;;;;20.28;53.91;101820.91;5203279;28;20120;-71
2022/05/03 12:34:34;;;;;;;7.63;4.07;;;;;;;20.32;54.73;101818.59;5202945;28;20022;-72
2022/05/03 12:37:04;;;;;;;9.02;4.07;;;;;;;20.94;50.81;101820.13;5203057;28;20394;-71
2022/05/03 12:39:36;;;;;;;5.40;4.20;;;;;;;20.90;51.93;101825.16;5188847;28;20021;-72
2022/05/03 12:42:10;;;;;;;9.05;4.82;;;;;;;20.72;59.12;101819.50;5203437;28;20016;-72
2022/05/03 12:44:48;;;;;;;7.35;4.55;;;;;;;20.88;56.93;101819.09;5203061;28;20111;-71
2022/05/03 12:47:19;;;;;;;8.23;5.03;;;;;;;20.60;58.90;101816.56;5202959;28;20033;-71
2022/05/03 12:49:50;;;;;;;11.02;4.95;;;;;;;20.94;56.73;101806.50;5203320;28;20032;-71